sensor_id;sensor_type;location;lat;lon;timestamp;P1;durP1;ratioP1;P2;durP2;ratioP2
12846;SDS011;6492;48.128;8.320;2023-11-22T00:01:16;6.30;;;3.57;;
12846;SDS011;6492;48.128;8.320;2023-11-22T00:05:19;5.37;;;3.37;;
12846;SDS011;6492;48.128;8.320;2023-11-22T00:09:21;4.70;;;3.60;;
12846;SDS011;6492;48.128;8.320;2023-11-22T00:13:23;5.97;;;3.60;;
12846;SDS011;6492;48.128;8.320;2023-11-22T00:17:26;5.33;;;3.47;;
12846;SDS011;6492;48.128;8.320;2023-11-22T00:21:28;4.20;;;3.37;;
12846;SDS011;6492;48.128;8.320;2023-11-22T00:25:30;8.73;;;3.20;;
12846;SDS011;6492;48.128;8.320;2023-11-22T00:29:32;6.20;;;3.20;;
12846;SDS011;6492;48.128;8.320;2023-11-22T00:33:35;3.93;;;2.80;;
12846;SDS011;6492;48.128;8.320;2023-11-22T00:37:39;3.63;;;2.50;;
12846;SDS011;6492;48.128;8.320;2023-11-22T00:41:41;5.27;;;2.47;;
12846;SDS011;6492;48.128;8.320;2023-11-22T00:45:44;3.33;;;2.70;;
12846;SDS011;6492;48.128;8.320;2023-11-22T00:49:47;3.70;;;2.40;;
12846;SDS011;6492;48.128;8.320;2023-11-22T00:53:49;3.17;;;2.13;;
12846;SDS011;6492;48.128;8.320;2023-11-22T00:57:51;3.43;;;2.70;;
12846;SDS011;6492;48.128;8.320;2023-11-22T01:01:52;2.67;;;2.20;;
12846;SDS011;6492;48.128;8.320;2023-11-22T01:05:56;2.97;;;2.23;;
12846;SDS011;6492;48.128;8.320;2023-11-22T01:09:58;2.97;;;2.13;;
12846;SDS011;6492;48.128;8.320;2023-11-22T01:14:00;4.47;;;2.47;;
12846;SDS011;6492;48.128;8.320;2023-11-22T01:18:02;3.10;;;2.20;;
12846;SDS011;6492;48.128;8.320;2023-11-22T01:22:05;2.73;;;2.30;;
12846;SDS011;6492;48.128;8.320;2023-11-22T01:26:06;2.40;;;2.20;;
12846;SDS011;6492;48.128;8.320;2023-11-22T01:30:09;2.63;;;2.30;;
12846;SDS011;6492;48.128;8.320;2023-11-22T01:34:12;3.87;;;2.33;;
12846;SDS011;6492;48.128;8.320;2023-11-22T01:38:15;2.60;;;2.20;;
12846;SDS011;6492;48.128;8.320;2023-11-22T01:42:17;3.00;;;2.30;;
12846;SDS011;6492;48.128;8.320;2023-11-22T01:46:21;3.00;;;2.43;;
12846;SDS011;6492;48.128;8.320;2023-11-22T01:50:24;4.50;;;2.93;;
12846;SDS011;6492;48.128;8.320;2023-11-22T01:54:27;3.50;;;2.63;;
12846;SDS011;6492;48.128;8.320;2023-11-22T01:58:30;3.07;;;2.60;;
12846;SDS011;6492;48.128;8.320;2023-11-22T02:02:33;3.57;;;2.53;;
12846;SDS011;6492;48.128;8.320;2023-11-22T02:06:35;4.33;;;2.60;;
12846;SDS011;6492;48.128;8.320;2023-11-22T02:10:38;3.40;;;2.90;;
12846;SDS011;6492;48.128;8.320;2023-11-22T02:14:41;3.60;;;2.87;;
12846;SDS011;6492;48.128;8.320;2023-11-22T02:18:43;2.93;;;2.47;;
12846;SDS011;6492;48.128;8.320;2023-11-22T02:22:46;3.00;;;2.27;;
12846;SDS011;6492;48.128;8.320;2023-11-22T02:26:51;4.10;;;2.67;;
12846;SDS011;6492;48.128;8.320;2023-11-22T02:30:54;2.67;;;2.20;;
12846;SDS011;6492;48.128;8.320;2023-11-22T02:34:56;3.77;;;2.80;;
12846;SDS011;6492;48.128;8.320;2023-11-22T02:38:57;5.67;;;2.70;;
12846;SDS011;6492;48.128;8.320;2023-11-22T02:43:00;5.37;;;3.20;;
12846;SDS011;6492;48.128;8.320;2023-11-22T02:47:07;7.00;;;4.47;;
12846;SDS011;6492;48.128;8.320;2023-11-22T02:51:10;3.37;;;2.83;;
12846;SDS011;6492;48.128;8.320;2023-11-22T02:55:13;3.27;;;2.73;;
12846;SDS011;6492;48.128;8.320;2023-11-22T02:59:17;3.13;;;2.50;;
12846;SDS011;6492;48.128;8.320;2023-11-22T03:07:41;3.40;;;3.10;;
12846;SDS011;6492;48.128;8.320;2023-11-22T03:11:43;2.63;;;2.23;;
12846;SDS011;6492;48.128;8.320;2023-11-22T03:15:46;2.10;;;1.90;;
12846;SDS011;6492;48.128;8.320;2023-11-22T03:19:47;1.63;;;1.50;;
12846;SDS011;6492;48.128;8.320;2023-11-22T03:23:49;1.50;;;1.37;;
12846;SDS011;6492;48.128;8.320;2023-11-22T03:27:51;2.50;;;2.17;;
12846;SDS011;6492;48.128;8.320;2023-11-22T03:31:54;13.53;;;3.00;;
12846;SDS011;6492;48.128;8.320;2023-11-22T03:35:56;92.87;;;10.30;;
12846;SDS011;6492;48.128;8.320;2023-11-22T03:39:58;47.40;;;5.87;;
12846;SDS011;6492;48.128;8.320;2023-11-22T03:43:59;86.70;;;8.60;;
12846;SDS011;6492;48.128;8.320;2023-11-22T03:48:02;25.03;;;4.90;;
12846;SDS011;6492;48.128;8.320;2023-11-22T03:52:04;45.37;;;11.07;;
12846;SDS011;6492;48.128;8.320;2023-11-22T03:56:08;6.57;;;3.70;;
12846;SDS011;6492;48.128;8.320;2023-11-22T04:00:10;8.33;;;2.87;;
12846;SDS011;6492;48.128;8.320;2023-11-22T04:04:15;33.23;;;4.33;;
12846;SDS011;6492;48.128;8.320;2023-11-22T04:08:17;28.97;;;5.00;;
12846;SDS011;6492;48.128;8.320;2023-11-22T04:12:18;11.60;;;3.93;;
12846;SDS011;6492;48.128;8.320;2023-11-22T04:16:20;2.00;;;1.80;;
12846;SDS011;6492;48.128;8.320;2023-11-22T04:20:24;105.30;;;10.37;;
12846;SDS011;6492;48.128;8.320;2023-11-22T04:24:25;32.27;;;3.70;;
12846;SDS011;6492;48.128;8.320;2023-11-22T04:28:28;3.43;;;2.13;;
12846;SDS011;6492;48.128;8.320;2023-11-22T04:32:30;2.57;;;2.00;;
12846;SDS011;6492;48.128;8.320;2023-11-22T04:36:33;4.57;;;2.40;;
12846;SDS011;6492;48.128;8.320;2023-11-22T04:40:35;2.20;;;1.90;;
12846;SDS011;6492;48.128;8.320;2023-11-22T04:44:38;2.17;;;1.80;;
12846;SDS011;6492;48.128;8.320;2023-11-22T04:48:39;1.90;;;1.70;;
12846;SDS011;6492;48.128;8.320;2023-11-22T04:52:46;1.73;;;1.63;;
12846;SDS011;6492;48.128;8.320;2023-11-22T04:56:48;2.40;;;1.67;;
12846;SDS011;6492;48.128;8.320;2023-11-22T05:00:50;2.03;;;1.83;;
12846;SDS011;6492;48.128;8.320;2023-11-22T05:04:52;2.30;;;2.10;;
12846;SDS011;6492;48.128;8.320;2023-11-22T05:08:55;2.77;;;2.30;;
12846;SDS011;6492;48.128;8.320;2023-11-22T05:12:57;2.47;;;2.17;;
12846;SDS011;6492;48.128;8.320;2023-11-22T05:17:04;2.63;;;2.23;;
12846;SDS011;6492;48.128;8.320;2023-11-22T05:21:06;4.47;;;2.53;;
12846;SDS011;6492;48.128;8.320;2023-11-22T05:25:09;2.60;;;2.40;;
12846;SDS011;6492;48.128;8.320;2023-11-22T05:29:11;3.23;;;2.90;;
12846;SDS011;6492;48.128;8.320;2023-11-22T05:37:34;3.63;;;2.93;;
12846;SDS011;6492;48.128;8.320;2023-11-22T05:41:38;27.83;;;4.00;;
12846;SDS011;6492;48.128;8.320;2023-11-22T05:45:40;20.97;;;4.43;;
12846;SDS011;6492;48.128;8.320;2023-11-22T05:49:41;94.80;;;11.93;;
12846;SDS011;6492;48.128;8.320;2023-11-22T05:53:43;132.87;;;16.17;;
12846;SDS011;6492;48.128;8.320;2023-11-22T05:57:47;4.00;;;2.60;;
12846;SDS011;6492;48.128;8.320;2023-11-22T06:01:48;26.17;;;5.37;;
12846;SDS011;6492;48.128;8.320;2023-11-22T06:05:50;16.40;;;6.07;;
12846;SDS011;6492;48.128;8.320;2023-11-22T06:09:52;71.87;;;8.73;;
12846;SDS011;6492;48.128;8.320;2023-11-22T06:13:55;40.60;;;7.90;;
12846;SDS011;6492;48.128;8.320;2023-11-22T06:17:57;63.47;;;8.53;;
12846;SDS011;6492;48.128;8.320;2023-11-22T06:21:59;67.60;;;8.37;;
12846;SDS011;6492;48.128;8.320;2023-11-22T06:26:12;3.57;;;2.83;;
12846;SDS011;6492;48.128;8.320;2023-11-22T06:30:16;10.73;;;3.60;;
12846;SDS011;6492;48.128;8.320;2023-11-22T06:34:19;7.70;;;3.67;;
12846;SDS011;6492;48.128;8.320;2023-11-22T06:38:21;6.40;;;3.33;;
12846;SDS011;6492;48.128;8.320;2023-11-22T06:42:22;3.80;;;3.23;;
12846;SDS011;6492;48.128;8.320;2023-11-22T06:46:25;10.90;;;4.80;;
12846;SDS011;6492;48.128;8.320;2023-11-22T06:50:27;5.60;;;3.70;;
12846;SDS011;6492;48.128;8.320;2023-11-22T06:54:29;6.97;;;4.23;;
12846;SDS011;6492;48.128;8.320;2023-11-22T06:58:31;21.00;;;5.70;;
12846;SDS011;6492;48.128;8.320;2023-11-22T07:02:34;19.40;;;5.27;;
12846;SDS011;6492;48.128;8.320;2023-11-22T07:06:39;20.23;;;5.37;;
12846;SDS011;6492;48.128;8.320;2023-11-22T07:10:42;6.20;;;4.00;;
12846;SDS011;6492;48.128;8.320;2023-11-22T07:14:45;6.57;;;4.23;;
12846;SDS011;6492;48.128;8.320;2023-11-22T07:18:49;14.27;;;8.27;;
12846;SDS011;6492;48.128;8.320;2023-11-22T07:27:06;5.53;;;4.53;;
12846;SDS011;6492;48.128;8.320;2023-11-22T07:31:12;13.30;;;5.60;;
12846;SDS011;6492;48.128;8.320;2023-11-22T07:35:15;5.73;;;4.77;;
12846;SDS011;6492;48.128;8.320;2023-11-22T07:39:34;5.63;;;4.73;;
12846;SDS011;6492;48.128;8.320;2023-11-22T07:43:42;7.17;;;4.73;;
12846;SDS011;6492;48.128;8.320;2023-11-22T07:52:12;8.77;;;5.00;;
12846;SDS011;6492;48.128;8.320;2023-11-22T07:56:14;8.27;;;4.57;;
12846;SDS011;6492;48.128;8.320;2023-11-22T08:00:16;8.63;;;4.97;;
12846;SDS011;6492;48.128;8.320;2023-11-22T08:04:20;12.40;;;8.00;;
12846;SDS011;6492;48.128;8.320;2023-11-22T08:08:24;7.30;;;5.90;;
12846;SDS011;6492;48.128;8.320;2023-11-22T08:12:26;6.80;;;5.07;;
12846;SDS011;6492;48.128;8.320;2023-11-22T08:16:29;5.90;;;4.93;;
12846;SDS011;6492;48.128;8.320;2023-11-22T08:20:30;5.77;;;4.60;;
12846;SDS011;6492;48.128;8.320;2023-11-22T08:24:44;5.77;;;3.77;;
12846;SDS011;6492;48.128;8.320;2023-11-22T08:28:53;3.87;;;3.47;;
12846;SDS011;6492;48.128;8.320;2023-11-22T08:32:55;5.70;;;4.43;;
12846;SDS011;6492;48.128;8.320;2023-11-22T08:36:57;3.97;;;3.53;;
12846;SDS011;6492;48.128;8.320;2023-11-22T08:41:02;4.37;;;3.53;;
12846;SDS011;6492;48.128;8.320;2023-11-22T08:45:05;4.63;;;3.90;;
12846;SDS011;6492;48.128;8.320;2023-11-22T08:49:08;5.37;;;4.23;;
12846;SDS011;6492;48.128;8.320;2023-11-22T08:53:11;5.90;;;4.60;;
12846;SDS011;6492;48.128;8.320;2023-11-22T08:57:14;6.40;;;4.30;;
12846;SDS011;6492;48.128;8.320;2023-11-22T09:01:16;5.20;;;4.13;;
12846;SDS011;6492;48.128;8.320;2023-11-22T09:05:18;5.73;;;3.93;;
12846;SDS011;6492;48.128;8.320;2023-11-22T09:09:24;6.03;;;4.47;;
12846;SDS011;6492;48.128;8.320;2023-11-22T09:17:57;4.77;;;3.60;;
12846;SDS011;6492;48.128;8.320;2023-11-22T09:22:05;6.57;;;4.47;;
12846;SDS011;6492;48.128;8.320;2023-11-22T09:26:08;5.83;;;4.87;;
12846;SDS011;6492;48.128;8.320;2023-11-22T09:30:12;5.00;;;4.20;;
12846;SDS011;6492;48.128;8.320;2023-11-22T09:34:19;5.80;;;4.67;;
12846;SDS011;6492;48.128;8.320;2023-11-22T09:38:21;9.97;;;6.60;;
12846;SDS011;6492;48.128;8.320;2023-11-22T09:42:24;6.00;;;4.40;;
12846;SDS011;6492;48.128;8.320;2023-11-22T09:46:28;5.10;;;4.00;;
12846;SDS011;6492;48.128;8.320;2023-11-22T09:50:34;5.97;;;4.83;;
12846;SDS011;6492;48.128;8.320;2023-11-22T09:54:41;6.20;;;4.33;;
12846;SDS011;6492;48.128;8.320;2023-11-22T10:03:13;5.90;;;4.63;;
12846;SDS011;6492;48.128;8.320;2023-11-22T10:07:27;5.77;;;4.50;;
12846;SDS011;6492;48.128;8.320;2023-11-22T10:11:29;5.00;;;3.50;;
12846;SDS011;6492;48.128;8.320;2023-11-22T10:15:31;4.50;;;3.80;;
12846;SDS011;6492;48.128;8.320;2023-11-22T10:19:34;4.80;;;3.97;;
12846;SDS011;6492;48.128;8.320;2023-11-22T10:23:36;5.23;;;4.10;;
12846;SDS011;6492;48.128;8.320;2023-11-22T10:27:53;4.43;;;3.80;;
12846;SDS011;6492;48.128;8.320;2023-11-22T10:31:55;4.83;;;3.80;;
12846;SDS011;6492;48.128;8.320;2023-11-22T10:35:58;4.27;;;3.43;;
12846;SDS011;6492;48.128;8.320;2023-11-22T10:40:17;4.70;;;3.90;;
12846;SDS011;6492;48.128;8.320;2023-11-22T10:44:20;5.07;;;3.93;;
12846;SDS011;6492;48.128;8.320;2023-11-22T10:48:24;7.03;;;5.50;;
12846;SDS011;6492;48.128;8.320;2023-11-22T10:52:32;5.43;;;4.30;;
12846;SDS011;6492;48.128;8.320;2023-11-22T10:56:39;4.73;;;3.93;;
12846;SDS011;6492;48.128;8.320;2023-11-22T11:00:42;4.50;;;3.93;;
12846;SDS011;6492;48.128;8.320;2023-11-22T11:04:46;5.50;;;4.40;;
12846;SDS011;6492;48.128;8.320;2023-11-22T11:08:56;4.83;;;4.20;;
12846;SDS011;6492;48.128;8.320;2023-11-22T11:13:00;6.33;;;4.50;;
12846;SDS011;6492;48.128;8.320;2023-11-22T11:17:02;5.33;;;4.20;;
12846;SDS011;6492;48.128;8.320;2023-11-22T11:21:07;4.60;;;4.10;;
12846;SDS011;6492;48.128;8.320;2023-11-22T11:25:14;6.13;;;4.70;;
12846;SDS011;6492;48.128;8.320;2023-11-22T11:29:30;5.73;;;4.50;;
12846;SDS011;6492;48.128;8.320;2023-11-22T11:33:33;6.53;;;4.37;;
12846;SDS011;6492;48.128;8.320;2023-11-22T11:37:36;5.47;;;4.27;;
12846;SDS011;6492;48.128;8.320;2023-11-22T11:41:40;5.23;;;4.03;;
12846;SDS011;6492;48.128;8.320;2023-11-22T11:45:42;5.30;;;4.17;;
12846;SDS011;6492;48.128;8.320;2023-11-22T11:49:48;4.57;;;3.97;;
12846;SDS011;6492;48.128;8.320;2023-11-22T11:53:51;4.83;;;3.40;;
12846;SDS011;6492;48.128;8.320;2023-11-22T11:57:54;3.83;;;3.30;;
12846;SDS011;6492;48.128;8.320;2023-11-22T12:01:56;5.23;;;4.47;;
12846;SDS011;6492;48.128;8.320;2023-11-22T12:06:00;4.83;;;3.80;;
12846;SDS011;6492;48.128;8.320;2023-11-22T12:10:02;3.67;;;3.33;;
12846;SDS011;6492;48.128;8.320;2023-11-22T12:14:07;3.83;;;3.37;;
12846;SDS011;6492;48.128;8.320;2023-11-22T12:18:09;5.00;;;4.00;;
12846;SDS011;6492;48.128;8.320;2023-11-22T12:22:11;4.13;;;3.03;;
12846;SDS011;6492;48.128;8.320;2023-11-22T12:26:13;5.87;;;4.80;;
12846;SDS011;6492;48.128;8.320;2023-11-22T12:30:29;4.87;;;3.80;;
12846;SDS011;6492;48.128;8.320;2023-11-22T12:34:32;4.93;;;4.17;;
12846;SDS011;6492;48.128;8.320;2023-11-22T12:38:34;4.07;;;3.27;;
12846;SDS011;6492;48.128;8.320;2023-11-22T12:42:45;4.33;;;3.93;;
12846;SDS011;6492;48.128;8.320;2023-11-22T12:46:52;5.37;;;4.13;;
12846;SDS011;6492;48.128;8.320;2023-11-22T12:50:57;4.13;;;3.73;;
12846;SDS011;6492;48.128;8.320;2023-11-22T12:54:58;5.23;;;4.07;;
12846;SDS011;6492;48.128;8.320;2023-11-22T12:59:00;4.63;;;3.77;;
12846;SDS011;6492;48.128;8.320;2023-11-22T13:03:05;5.43;;;3.77;;
12846;SDS011;6492;48.128;8.320;2023-11-22T13:07:07;4.67;;;4.20;;
12846;SDS011;6492;48.128;8.320;2023-11-22T13:11:09;5.40;;;3.77;;
12846;SDS011;6492;48.128;8.320;2023-11-22T13:15:10;5.37;;;4.20;;
12846;SDS011;6492;48.128;8.320;2023-11-22T13:19:14;6.23;;;4.40;;
12846;SDS011;6492;48.128;8.320;2023-11-22T13:23:15;7.20;;;5.00;;
12846;SDS011;6492;48.128;8.320;2023-11-22T13:27:17;6.53;;;5.10;;
12846;SDS011;6492;48.128;8.320;2023-11-22T13:31:19;5.90;;;5.07;;
12846;SDS011;6492;48.128;8.320;2023-11-22T13:35:29;7.47;;;5.70;;
12846;SDS011;6492;48.128;8.320;2023-11-22T13:39:31;7.13;;;5.63;;
12846;SDS011;6492;48.128;8.320;2023-11-22T13:43:33;7.70;;;5.73;;
12846;SDS011;6492;48.128;8.320;2023-11-22T13:47:35;7.33;;;6.03;;
12846;SDS011;6492;48.128;8.320;2023-11-22T13:51:38;8.60;;;6.63;;
12846;SDS011;6492;48.128;8.320;2023-11-22T13:55:40;9.97;;;7.33;;
12846;SDS011;6492;48.128;8.320;2023-11-22T13:59:42;8.63;;;6.57;;
12846;SDS011;6492;48.128;8.320;2023-11-22T14:03:43;8.13;;;6.20;;
12846;SDS011;6492;48.128;8.320;2023-11-22T14:07:47;7.93;;;5.47;;
12846;SDS011;6492;48.128;8.320;2023-11-22T14:11:49;9.50;;;6.00;;
12846;SDS011;6492;48.128;8.320;2023-11-22T14:15:50;9.53;;;6.43;;
12846;SDS011;6492;48.128;8.320;2023-11-22T14:19:52;9.23;;;7.13;;
12846;SDS011;6492;48.128;8.320;2023-11-22T14:23:56;10.73;;;6.83;;
12846;SDS011;6492;48.128;8.320;2023-11-22T14:27:58;8.13;;;6.00;;
12846;SDS011;6492;48.128;8.320;2023-11-22T14:32:00;8.47;;;6.43;;
12846;SDS011;6492;48.128;8.320;2023-11-22T14:36:01;8.63;;;6.60;;
12846;SDS011;6492;48.128;8.320;2023-11-22T14:40:06;8.60;;;5.70;;
12846;SDS011;6492;48.128;8.320;2023-11-22T14:44:13;10.37;;;6.73;;
12846;SDS011;6492;48.128;8.320;2023-11-22T14:48:15;8.73;;;5.93;;
12846;SDS011;6492;48.128;8.320;2023-11-22T14:52:16;8.43;;;6.60;;
12846;SDS011;6492;48.128;8.320;2023-11-22T14:56:20;9.37;;;6.50;;
12846;SDS011;6492;48.128;8.320;2023-11-22T15:00:23;10.33;;;7.33;;
12846;SDS011;6492;48.128;8.320;2023-11-22T15:04:25;15.37;;;9.53;;
12846;SDS011;6492;48.128;8.320;2023-11-22T15:08:26;11.27;;;7.87;;
12846;SDS011;6492;48.128;8.320;2023-11-22T15:12:30;14.53;;;8.87;;
12846;SDS011;6492;48.128;8.320;2023-11-22T15:16:33;8.93;;;6.70;;
12846;SDS011;6492;48.128;8.320;2023-11-22T15:20:36;11.67;;;7.30;;
12846;SDS011;6492;48.128;8.320;2023-11-22T15:24:38;9.33;;;6.97;;
12846;SDS011;6492;48.128;8.320;2023-11-22T15:28:41;11.73;;;7.77;;
12846;SDS011;6492;48.128;8.320;2023-11-22T15:32:43;10.10;;;7.23;;
12846;SDS011;6492;48.128;8.320;2023-11-22T15:36:46;9.53;;;7.03;;
12846;SDS011;6492;48.128;8.320;2023-11-22T15:40:48;10.90;;;7.40;;
12846;SDS011;6492;48.128;8.320;2023-11-22T15:44:51;9.70;;;6.93;;
12846;SDS011;6492;48.128;8.320;2023-11-22T15:48:53;10.70;;;7.70;;
12846;SDS011;6492;48.128;8.320;2023-11-22T15:52:55;9.73;;;7.27;;
12846;SDS011;6492;48.128;8.320;2023-11-22T15:56:57;8.70;;;6.13;;
12846;SDS011;6492;48.128;8.320;2023-11-22T16:01:00;6.77;;;5.63;;
12846;SDS011;6492;48.128;8.320;2023-11-22T16:05:03;8.37;;;6.13;;
12846;SDS011;6492;48.128;8.320;2023-11-22T16:09:06;10.00;;;6.70;;
12846;SDS011;6492;48.128;8.320;2023-11-22T16:13:10;11.37;;;7.23;;
12846;SDS011;6492;48.128;8.320;2023-11-22T16:17:13;9.93;;;7.23;;
12846;SDS011;6492;48.128;8.320;2023-11-22T16:21:16;11.13;;;7.77;;
12846;SDS011;6492;48.128;8.320;2023-11-22T16:25:18;13.93;;;8.83;;
12846;SDS011;6492;48.128;8.320;2023-11-22T16:29:23;14.60;;;9.90;;
12846;SDS011;6492;48.128;8.320;2023-11-22T16:33:26;14.20;;;9.20;;
12846;SDS011;6492;48.128;8.320;2023-11-22T16:37:28;13.40;;;8.70;;
12846;SDS011;6492;48.128;8.320;2023-11-22T16:41:29;14.17;;;9.40;;
12846;SDS011;6492;48.128;8.320;2023-11-22T16:45:31;22.07;;;14.53;;
12846;SDS011;6492;48.128;8.320;2023-11-22T16:49:34;12.97;;;9.40;;
12846;SDS011;6492;48.128;8.320;2023-11-22T16:53:44;14.30;;;9.90;;
12846;SDS011;6492;48.128;8.320;2023-11-22T16:57:46;15.10;;;9.80;;
12846;SDS011;6492;48.128;8.320;2023-11-22T17:06:13;13.00;;;8.83;;
12846;SDS011;6492;48.128;8.320;2023-11-22T17:10:15;13.43;;;9.13;;
12846;SDS011;6492;48.128;8.320;2023-11-22T17:14:17;11.90;;;8.23;;
12846;SDS011;6492;48.128;8.320;2023-11-22T17:18:18;15.03;;;9.63;;
12846;SDS011;6492;48.128;8.320;2023-11-22T17:22:22;41.97;;;21.50;;
12846;SDS011;6492;48.128;8.320;2023-11-22T17:26:25;14.77;;;9.47;;
12846;SDS011;6492;48.128;8.320;2023-11-22T17:30:27;15.93;;;9.93;;
12846;SDS011;6492;48.128;8.320;2023-11-22T17:34:28;13.83;;;8.10;;
12846;SDS011;6492;48.128;8.320;2023-11-22T17:38:34;10.03;;;7.03;;
12846;SDS011;6492;48.128;8.320;2023-11-22T17:42:35;12.43;;;7.93;;
12846;SDS011;6492;48.128;8.320;2023-11-22T17:46:39;13.23;;;8.80;;
12846;SDS011;6492;48.128;8.320;2023-11-22T17:50:41;11.87;;;8.10;;
12846;SDS011;6492;48.128;8.320;2023-11-22T17:54:44;12.27;;;8.40;;
12846;SDS011;6492;48.128;8.320;2023-11-22T17:58:46;12.83;;;8.13;;
12846;SDS011;6492;48.128;8.320;2023-11-22T18:02:48;14.53;;;9.43;;
12846;SDS011;6492;48.128;8.320;2023-11-22T18:06:50;13.20;;;8.80;;
12846;SDS011;6492;48.128;8.320;2023-11-22T18:10:58;15.17;;;9.03;;
12846;SDS011;6492;48.128;8.320;2023-11-22T18:19:13;12.73;;;8.83;;
12846;SDS011;6492;48.128;8.320;2023-11-22T18:23:15;13.40;;;8.50;;
12846;SDS011;6492;48.128;8.320;2023-11-22T18:27:18;16.37;;;11.47;;
12846;SDS011;6492;48.128;8.320;2023-11-22T18:31:25;11.20;;;7.37;;
12846;SDS011;6492;48.128;8.320;2023-11-22T18:35:26;14.23;;;9.10;;
12846;SDS011;6492;48.128;8.320;2023-11-22T18:39:28;12.30;;;7.97;;
12846;SDS011;6492;48.128;8.320;2023-11-22T18:43:31;14.27;;;9.40;;
12846;SDS011;6492;48.128;8.320;2023-11-22T18:47:34;15.87;;;11.57;;
12846;SDS011;6492;48.128;8.320;2023-11-22T18:51:36;14.80;;;9.17;;
12846;SDS011;6492;48.128;8.320;2023-11-22T18:55:38;15.37;;;9.43;;
12846;SDS011;6492;48.128;8.320;2023-11-22T18:59:42;21.30;;;14.93;;
12846;SDS011;6492;48.128;8.320;2023-11-22T19:03:56;13.40;;;8.53;;
12846;SDS011;6492;48.128;8.320;2023-11-22T19:07:58;10.90;;;8.00;;
12846;SDS011;6492;48.128;8.320;2023-11-22T19:11:59;21.83;;;14.23;;
12846;SDS011;6492;48.128;8.320;2023-11-22T19:16:03;18.07;;;11.30;;
12846;SDS011;6492;48.128;8.320;2023-11-22T19:20:07;33.47;;;22.03;;
12846;SDS011;6492;48.128;8.320;2023-11-22T19:24:11;19.07;;;11.70;;
12846;SDS011;6492;48.128;8.320;2023-11-22T19:28:13;18.40;;;12.43;;
12846;SDS011;6492;48.128;8.320;2023-11-22T19:32:16;15.80;;;11.10;;
12846;SDS011;6492;48.128;8.320;2023-11-22T19:36:30;16.20;;;10.23;;
12846;SDS011;6492;48.128;8.320;2023-11-22T19:40:42;13.77;;;9.33;;
12846;SDS011;6492;48.128;8.320;2023-11-22T19:44:51;19.03;;;12.67;;
12846;SDS011;6492;48.128;8.320;2023-11-22T19:48:56;11.20;;;8.20;;
12846;SDS011;6492;48.128;8.320;2023-11-22T19:53:08;13.33;;;8.63;;
12846;SDS011;6492;48.128;8.320;2023-11-22T19:57:18;14.87;;;9.23;;
12846;SDS011;6492;48.128;8.320;2023-11-22T20:01:20;14.30;;;9.27;;
12846;SDS011;6492;48.128;8.320;2023-11-22T20:05:23;16.07;;;9.30;;
12846;SDS011;6492;48.128;8.320;2023-11-22T20:09:25;15.97;;;9.97;;
12846;SDS011;6492;48.128;8.320;2023-11-22T20:13:27;14.73;;;9.73;;
12846;SDS011;6492;48.128;8.320;2023-11-22T20:17:46;13.43;;;8.47;;
12846;SDS011;6492;48.128;8.320;2023-11-22T20:21:50;15.63;;;10.20;;
12846;SDS011;6492;48.128;8.320;2023-11-22T20:26:02;13.50;;;8.40;;
12846;SDS011;6492;48.128;8.320;2023-11-22T20:30:05;13.20;;;9.47;;
12846;SDS011;6492;48.128;8.320;2023-11-22T20:34:08;14.00;;;8.70;;
12846;SDS011;6492;48.128;8.320;2023-11-22T20:38:11;12.40;;;8.40;;
12846;SDS011;6492;48.128;8.320;2023-11-22T20:42:13;14.87;;;11.00;;
12846;SDS011;6492;48.128;8.320;2023-11-22T20:46:14;12.27;;;8.37;;
12846;SDS011;6492;48.128;8.320;2023-11-22T20:50:16;16.17;;;10.57;;
12846;SDS011;6492;48.128;8.320;2023-11-22T20:54:19;11.23;;;7.60;;
12846;SDS011;6492;48.128;8.320;2023-11-22T20:58:21;14.23;;;9.43;;
12846;SDS011;6492;48.128;8.320;2023-11-22T21:02:23;11.50;;;7.60;;
12846;SDS011;6492;48.128;8.320;2023-11-22T21:06:25;11.83;;;7.73;;
12846;SDS011;6492;48.128;8.320;2023-11-22T21:10:28;10.77;;;7.73;;
12846;SDS011;6492;48.128;8.320;2023-11-22T21:14:30;11.60;;;7.60;;
12846;SDS011;6492;48.128;8.320;2023-11-22T21:18:49;11.83;;;7.93;;
12846;SDS011;6492;48.128;8.320;2023-11-22T21:22:53;13.97;;;8.93;;
12846;SDS011;6492;48.128;8.320;2023-11-22T21:26:56;12.33;;;8.57;;
12846;SDS011;6492;48.128;8.320;2023-11-22T21:30:58;19.90;;;13.13;;
12846;SDS011;6492;48.128;8.320;2023-11-22T21:39:32;22.10;;;13.63;;
12846;SDS011;6492;48.128;8.320;2023-11-22T21:43:36;12.27;;;8.37;;
12846;SDS011;6492;48.128;8.320;2023-11-22T21:47:38;12.57;;;8.10;;
12846;SDS011;6492;48.128;8.320;2023-11-22T22:00:49;10.23;;;7.30;;
12846;SDS011;6492;48.128;8.320;2023-11-22T22:05:00;10.67;;;7.33;;
12846;SDS011;6492;48.128;8.320;2023-11-22T22:09:03;9.83;;;6.70;;
12846;SDS011;6492;48.128;8.320;2023-11-22T22:13:07;9.90;;;6.20;;
12846;SDS011;6492;48.128;8.320;2023-11-22T22:17:26;9.47;;;6.10;;
12846;SDS011;6492;48.128;8.320;2023-11-22T22:21:28;7.80;;;5.53;;
12846;SDS011;6492;48.128;8.320;2023-11-22T22:25:29;8.40;;;6.40;;
12846;SDS011;6492;48.128;8.320;2023-11-22T22:29:31;7.73;;;5.80;;
12846;SDS011;6492;48.128;8.320;2023-11-22T22:33:34;7.93;;;5.90;;
12846;SDS011;6492;48.128;8.320;2023-11-22T22:37:36;6.40;;;5.17;;
12846;SDS011;6492;48.128;8.320;2023-11-22T22:41:39;6.60;;;4.73;;
12846;SDS011;6492;48.128;8.320;2023-11-22T22:45:41;6.77;;;4.90;;
12846;SDS011;6492;48.128;8.320;2023-11-22T22:49:44;6.57;;;4.90;;
12846;SDS011;6492;48.128;8.320;2023-11-22T22:53:46;6.27;;;4.57;;
12846;SDS011;6492;48.128;8.320;2023-11-22T22:57:49;7.17;;;4.83;;
12846;SDS011;6492;48.128;8.320;2023-11-22T23:01:51;6.47;;;4.83;;
12846;SDS011;6492;48.128;8.320;2023-11-22T23:05:54;7.40;;;5.20;;
12846;SDS011;6492;48.128;8.320;2023-11-22T23:09:56;7.53;;;5.13;;
12846;SDS011;6492;48.128;8.320;2023-11-22T23:13:58;7.37;;;5.27;;
12846;SDS011;6492;48.128;8.320;2023-11-22T23:17:59;6.60;;;5.00;;
12846;SDS011;6492;48.128;8.320;2023-11-22T23:22:04;6.67;;;4.90;;
12846;SDS011;6492;48.128;8.320;2023-11-22T23:26:06;6.67;;;4.93;;
12846;SDS011;6492;48.128;8.320;2023-11-22T23:30:08;7.00;;;5.23;;
12846;SDS011;6492;48.128;8.320;2023-11-22T23:34:11;6.87;;;4.77;;
12846;SDS011;6492;48.128;8.320;2023-11-22T23:38:14;6.83;;;5.27;;
12846;SDS011;6492;48.128;8.320;2023-11-22T23:42:16;6.27;;;4.70;;
12846;SDS011;6492;48.128;8.320;2023-11-22T23:46:18;6.97;;;4.97;;
12846;SDS011;6492;48.128;8.320;2023-11-22T23:50:20;7.47;;;5.50;;
12846;SDS011;6492;48.128;8.320;2023-11-22T23:54:23;6.43;;;5.17;;
12846;SDS011;6492;48.128;8.320;2023-11-22T23:58:25;7.37;;;5.40;;
